Latest Weather Observations for Wilsons Promontory

IDV60801

Issued at 2:05 pm EDT Saturday 1 November 2014 (issued every 30 minutes, with the page automatically refreshed every 10 minutes)

About weather observations | Map of weather stations | Latest weather observations for VIC | Other Formats
Station Details ID: 085096 Name: WILSONS PROMONTORY LIGHTHOUSE Lat: -39.13 Lon: 146.42 Height: 95.0 m
Data from the previous 72 hours. | See also: Recent months at Wilsons Promontory
Date/Time
EDT
Temp
°C
App
Temp
°C
Dew
Point
Rel
Hum
%
Delta-T
°C
Wind Press
QNH
hPa
Press
MSL
hPa
Rain
since 9 am
mm
Dir
 
Spd
km/h
Gust
km/h
Spd
kts
Gust
kts
01/02:00pm 12.3 0.8 7.2 71 2.5 W 57 83 31 45 1001.8 - 0.0
01/01:30pm 12.7 1.9 7.6 71 2.5 W 54 98 29 53 1001.5 - 0.0
01/01:00pm 13.3 0.6 6.9 65 3.1 W 63 85 34 46 1001.0 - 0.0
01/12:53pm 13.9 0.9 7.4 65 3.2 W 65 85 35 46 1000.9 - 0.0
01/12:51pm 13.5 -1.0 6.6 63 3.3 W 72 85 39 46 1000.6 - 0.0
01/12:30pm 14.4 3.8 7.0 61 3.6 W 52 83 28 45 1000.8 - 0.0
01/12:00pm 14.0 2.2 7.5 65 3.2 W 59 78 32 42 1000.6 1000.6 0.0
01/11:35am 13.8 2.8 6.9 63 3.4 W 54 72 29 39 1000.5 - 0.0
01/11:30am 13.9 2.5 6.7 62 3.5 W 56 72 30 39 1000.5 - 0.0
01/11:00am 14.0 3.4 7.1 63 3.4 W 52 70 28 38 1000.5 - 0.0
01/10:40am 13.9 3.5 7.7 66 3.1 W 52 70 28 38 1000.1 - 0.0
01/10:30am 13.7 2.3 7.7 67 3.0 W 57 74 31 40 1000.2 - 0.0
01/10:00am 12.8 3.2 8.1 73 2.3 W 48 69 26 37 999.9 - 0.0
01/09:33am 12.4 2.6 10.1 86 1.2 W 52 70 28 38 999.6 - 0.0
01/09:30am 12.2 2.0 10.1 87 1.1 W 54 70 29 38 999.6 - 0.0
01/09:00am 11.9 1.8 10.3 90 0.8 W 54 74 29 40 999.0 999.0 5.8
01/08:30am 12.1 3.2 10.7 91 0.7 W 48 67 26 36 998.2 - 5.8
01/08:00am 12.2 1.6 10.6 90 0.8 W 57 78 31 42 997.6 - 5.2
01/07:30am 12.7 2.8 11.1 90 0.8 W 54 76 29 41 997.5 - 3.4
01/07:00am 12.8 3.7 11.2 90 0.8 W 50 82 27 44 997.1 - 1.6
01/06:30am 13.0 2.7 10.9 87 1.1 W 56 80 30 43 996.1 - 0.4
01/06:00am 13.5 4.0 11.0 85 1.3 W 52 76 28 41 995.6 995.5 0.0
01/05:30am 14.1 4.6 11.3 83 1.5 W 52 72 28 39 995.9 - 0.0
01/05:01am 14.1 5.4 11.3 83 1.5 W 48 67 26 36 996.0 - 0.0
01/05:00am 14.1 5.4 11.3 83 1.5 W 48 65 26 35 996.0 - 0.0
01/04:38am 14.5 6.4 10.1 75 2.3 W 43 67 23 36 995.8 - 0.0
01/04:30am 14.5 6.8 10.1 75 2.3 W 41 56 22 30 994.8 - 0.0
01/04:26am 14.5 6.8 10.3 76 2.2 W 41 54 22 29 994.6 - 0.0
01/04:04am 14.6 6.0 11.7 83 1.6 W 48 67 26 36 996.7 - 0.0
01/04:00am 14.6 6.4 11.7 83 1.6 W 46 61 25 33 996.1 - 0.0
01/03:30am 14.5 6.4 12.2 86 1.3 W 46 70 25 38 997.1 - 0.0
01/03:00am 14.6 5.1 12.3 86 1.3 W 54 76 29 41 996.1 996.0 0.0
01/02:30am 15.1 5.7 11.5 79 1.9 W 52 72 28 39 995.7 - 0.0
01/02:01am 16.7 8.2 10.8 68 3.2 W 46 67 25 36 996.0 - 0.0
01/02:00am 16.8 8.0 10.9 68 3.2 W 48 65 26 35 996.0 - 0.0
01/01:37am 18.7 10.3 9.8 56 4.7 W 44 63 24 34 995.5 - 0.0
01/01:30am 18.7 12.0 9.5 55 4.9 W 35 52 19 28 995.4 - 0.0
01/01:04am 17.7 9.6 10.1 61 4.0 W 43 61 23 33 996.3 - 0.0
01/01:00am 17.7 9.6 10.1 61 4.0 W 43 56 23 30 996.2 - 0.0
01/12:30am 18.9 9.8 9.9 56 4.8 W 48 70 26 38 995.7 - 0.0
01/12:14am 24.0 16.4 9.2 39 8.0 W 39 74 21 40 995.4 - 0.0
01/12:12am 24.7 16.6 8.6 36 8.7 WNW 41 57 22 31 995.4 - 0.0
01/12:05am 26.4 19.5 6.4 28 10.5 NNW 32 57 17 31 995.1 - 0.0
01/12:00am 22.7 17.6 9.1 42 7.4 N 26 33 14 18 994.5 994.5 0.0
 
Date/Time
EDT
Temp
°C
App
Temp
°C
Dew
Point
Rel
Hum
%
Delta-T
°C
Wind Press
QNH
hPa
Press
MSL
hPa
Rain
since 9 am
mm
Dir
 
Spd
km/h
Gust
km/h
Spd
kts
Gust
kts
31/11:30pm 19.5 13.8 11.3 59 4.5 NNE 32 39 17 21 994.6 - 0.0
31/11:00pm 21.2 16.1 10.7 51 5.8 NNE 28 35 15 19 995.5 - 0.0
31/10:30pm 21.9 16.7 10.1 47 6.4 NNE 28 39 15 21 996.3 - 0.0
31/10:00pm 20.7 15.2 11.9 57 4.9 NNE 32 43 17 23 997.2 - 0.0
31/09:30pm 18.1 12.4 11.9 67 3.4 NNE 33 39 18 21 997.8 - 0.0
31/09:00pm 19.3 14.1 11.6 61 4.3 NNE 30 35 16 19 998.3 998.2 0.0
31/08:30pm 20.6 15.8 11.5 56 5.1 NNE 28 37 15 20 998.6 - 0.0
31/08:00pm 19.9 14.5 12.2 61 4.3 NNE 32 41 17 22 999.0 - 0.0
31/07:30pm 18.0 12.5 11.8 67 3.4 NNE 32 37 17 20 999.5 - 0.0
31/07:00pm 17.4 11.3 11.7 69 3.1 NNE 35 43 19 23 999.8 - 0.0
31/06:30pm 17.0 11.1 12.5 75 2.5 NNE 35 41 19 22 1000.1 - 0.0
31/06:00pm 16.8 10.9 12.5 76 2.4 NNE 35 44 19 24 1000.4 1000.4 0.0
31/05:30pm 16.7 11.4 13.0 79 2.1 NNE 33 41 18 22 1000.7 - 0.0
31/05:00pm 16.7 11.3 12.8 78 2.2 NNE 33 41 18 22 1001.0 - 0.0
31/04:30pm 17.1 11.9 12.8 76 2.4 N 32 39 17 21 1001.3 - 0.0
31/04:00pm 17.3 12.3 13.4 78 2.2 NNE 32 41 17 22 1001.6 - 0.0
31/03:30pm 17.3 12.3 13.4 78 2.2 NNE 32 43 17 23 1002.1 - 0.0
31/03:00pm 16.8 11.6 12.9 78 2.2 NNE 32 41 17 22 1002.6 1002.6 0.0
31/02:30pm 16.6 11.2 12.9 79 2.1 NNE 33 41 18 22 1003.3 - 0.0
31/02:00pm 15.8 11.1 13.1 84 1.5 NE 30 35 16 19 1004.2 - 0.0
31/01:30pm 16.2 11.5 13.1 82 1.7 NE 30 35 16 19 1004.8 - 0.0
31/01:00pm 16.6 11.9 13.3 81 1.9 NE 30 33 16 18 1005.6 - 0.0
31/12:30pm 15.7 10.2 12.5 81 1.8 NNE 33 39 18 21 1006.0 - 0.0
31/12:00pm 15.9 11.7 12.3 79 2.0 NNE 26 32 14 17 1006.9 1006.8 0.0
31/11:30am 15.6 11.3 12.0 79 2.0 NE 26 33 14 18 1007.2 - 0.0
31/11:00am 15.3 10.9 11.7 79 2.0 NNE 26 35 14 19 1007.7 - 0.0
31/10:30am 15.0 9.7 11.4 79 1.9 NNE 30 39 16 21 1008.0 - 0.0
31/10:00am 15.1 9.4 11.3 78 2.0 NNE 32 43 17 23 1008.1 - 0.0
31/09:30am 14.2 8.3 10.4 78 2.0 NNE 32 41 17 22 1008.5 - 0.0
31/09:00am 14.4 8.3 10.4 77 2.1 NNE 33 43 18 23 1008.9 1008.9 0.0
31/08:30am 14.7 9.8 9.9 73 2.5 NNE 26 33 14 18 1009.2 - 0.0
31/08:00am 14.9 12.8 9.7 71 2.7 NE 11 20 6 11 1010.1 - 0.0
31/07:30am 13.9 12.2 9.7 76 2.2 NNE 9 15 5 8 1010.3 - 0.0
31/07:00am 11.9 9.4 8.0 77 1.9 NNE 11 15 6 8 1010.1 - 0.0
31/06:30am 11.8 10.2 7.9 77 1.9 NNE 6 9 3 5 1010.4 - 0.0
31/06:00am 11.6 11.2 8.1 79 1.7 CALM 0 2 0 1 1010.4 1010.4 0.0
31/05:30am 11.4 9.3 8.4 82 1.5 NNE 9 13 5 7 1010.2 - 0.0
31/05:00am 11.3 9.9 8.7 84 1.3 NNE 6 9 3 5 1010.3 - 0.0
31/04:30am 11.3 9.6 8.5 83 1.4 NNW 7 15 4 8 1010.5 - 0.0
31/04:00am 11.7 9.3 8.7 82 1.5 NW 11 15 6 8 1010.9 - 0.0
31/03:30am 12.0 8.9 9.0 82 1.5 NW 15 19 8 10 1011.0 - 0.0
31/03:00am 12.0 8.2 9.0 82 1.5 NW 19 26 10 14 1011.2 1011.2 0.0
31/02:30am 12.0 7.9 8.8 81 1.6 WNW 20 30 11 16 1011.5 - 0.0
31/02:00am 12.2 7.7 8.5 78 1.8 WNW 22 30 12 16 1011.9 - 0.0
31/01:30am 12.4 7.5 8.5 77 1.9 WNW 24 33 13 18 1012.4 - 0.0
31/01:00am 12.4 7.2 8.9 79 1.8 WNW 26 33 14 18 1012.6 - 0.0
31/12:30am 12.5 7.3 8.8 78 1.9 WNW 26 33 14 18 1012.9 - 0.0
31/12:00am 12.6 7.1 9.1 79 1.8 WNW 28 33 15 18 1012.9 1012.9 0.0
 
Date/Time
EDT
Temp
°C
App
Temp
°C
Dew
Point
Rel
Hum
%
Delta-T
°C
Wind Press
QNH
hPa
Press
MSL
hPa
Rain
since 9 am
mm
Dir
 
Spd
km/h
Gust
km/h
Spd
kts
Gust
kts
30/11:30pm 12.4 7.6 8.9 79 1.8 WNW 24 35 13 19 1013.0 - 0.0
30/11:00pm 12.5 7.2 8.6 77 2.0 WNW 26 35 14 19 1013.0 - 0.0
30/10:30pm 12.6 7.3 8.5 76 2.0 WNW 26 33 14 18 1013.0 - 0.0
30/10:00pm 12.9 6.8 8.4 74 2.2 W 30 41 16 22 1012.7 - 0.0
30/09:30pm 13.0 6.6 8.5 74 2.3 W 32 46 17 25 1012.6 - 0.0
30/09:00pm 13.1 6.8 9.0 76 2.1 W 32 43 17 23 1012.6 1012.6 0.0
30/08:30pm 13.1 7.9 9.0 76 2.1 W 26 39 14 21 1012.4 - 0.0
30/08:00pm 13.3 7.4 9.0 75 2.2 W 30 43 16 23 1012.3 - 0.0
30/07:30pm 13.6 7.3 9.1 74 2.3 W 32 43 17 23 1012.4 - 0.0
30/07:00pm 14.1 6.9 9.3 73 2.5 W 37 48 20 26 1012.1 - 0.0
30/06:30pm 14.3 7.9 9.3 72 2.6 W 33 46 18 25 1012.3 - 0.0
30/06:00pm 14.9 8.5 8.4 65 3.3 W 32 50 17 27 1012.1 1012.1 0.0
30/05:30pm 14.8 5.9 9.2 69 2.9 W 46 59 25 32 1011.8 - 0.0
30/05:00pm 14.8 7.2 9.0 68 3.0 W 39 57 21 31 1011.9 - 0.0
30/04:30pm 14.4 6.0 9.0 70 2.8 W 43 61 23 33 1012.1 - 0.0
30/04:00pm 14.5 6.0 8.5 67 3.0 W 43 61 23 33 1011.8 - 0.0
30/03:30pm 14.6 5.1 8.5 67 3.1 W 48 67 26 36 1011.8 - 0.0
30/03:05pm 14.7 6.7 9.1 69 2.9 W 41 59 22 32 1012.0 - 0.0
30/03:00pm 14.8 6.9 9.2 69 2.9 W 41 57 22 31 1012.2 1012.2 0.0
30/02:30pm 14.6 7.7 8.8 68 3.0 W 35 56 19 30 1012.3 - 0.0
30/02:20pm 14.7 8.6 8.4 66 3.2 WSW 30 54 16 29 1012.5 - 0.0
30/02:18pm 14.9 9.6 8.6 66 3.2 WSW 26 54 14 29 1012.5 - 0.0
30/02:00pm 14.5 6.6 8.0 65 3.3 W 39 54 21 29 1012.5 - 0.0
30/01:31pm 14.9 7.8 7.9 63 3.5 W 35 54 19 29 1012.4 - 0.0
30/01:30pm 15.1 7.6 8.1 63 3.5 W 37 54 20 29 1012.5 - 0.0
30/01:02pm 14.6 6.9 8.8 68 3.0 W 39 57 21 31 1012.5 - 0.0
30/01:00pm 14.5 6.0 8.7 68 2.9 W 43 57 23 31 1012.6 - 0.0
30/12:51pm 14.0 6.3 8.8 71 2.6 W 39 57 21 31 1012.6 - 0.0
30/12:30pm 12.8 6.0 9.1 78 1.9 W 35 50 19 27 1012.7 - 0.0
30/12:04pm 13.4 5.8 9.1 75 2.2 W 39 61 21 33 1013.0 - 0.0
30/12:00pm 13.4 5.4 8.9 74 2.3 W 41 56 22 30 1013.0 1013.0 0.0
30/11:30am 14.0 5.7 9.4 74 2.4 W 43 57 23 31 1013.0 - 0.0
30/11:00am 14.3 7.8 9.1 71 2.7 W 33 52 18 28 1013.0 - 0.0
30/10:35am 14.5 7.0 8.0 65 3.3 W 37 59 20 32 1013.0 - 0.0
30/10:30am 14.5 7.0 8.0 65 3.3 W 37 54 20 29 1013.2 - 0.0
30/10:00am 14.7 5.5 8.0 64 3.4 W 46 59 25 32 1012.9 - 0.0
30/09:33am 14.0 6.2 8.4 69 2.8 W 39 61 21 33 1013.0 - 0.0
30/09:30am 13.9 6.1 8.3 69 2.8 W 39 56 21 30 1013.1 - 0.0
30/09:00am 13.3 6.5 9.4 77 2.0 W 35 48 19 26 1013.0 1013.0 0.0
30/08:40am 13.2 7.0 9.3 77 2.0 W 32 54 17 29 1013.4 - 0.0
30/08:30am 13.1 6.9 9.2 77 2.0 W 32 43 17 23 1013.2 - 0.0
30/08:06am 13.1 7.6 9.0 76 2.1 W 28 46 15 25 1013.1 - 0.0
30/08:00am 13.2 8.4 8.9 75 2.2 W 24 43 13 23 1013.0 - 0.0
30/07:34am 13.3 6.3 8.4 72 2.5 W 35 54 19 29 1012.9 - 0.0
30/07:30am 13.3 6.7 8.4 72 2.5 W 33 48 18 26 1012.8 - 0.0
30/07:12am 13.3 6.1 7.7 69 2.8 W 35 56 19 30 1012.5 - 0.0
30/07:00am 13.5 7.1 8.6 72 2.5 W 32 48 17 26 1012.6 - 0.0
30/06:30am 13.0 5.8 9.3 78 1.9 W 37 54 20 29 1012.2 - 0.0
30/06:00am 13.1 6.4 9.5 79 1.8 W 35 56 19 30 1012.3 1012.3 0.0
30/05:45am 12.9 6.8 9.7 81 1.6 W 32 50 17 27 1011.9 - 0.0
30/05:30am 13.0 7.0 10.0 82 1.6 W 32 48 17 26 1012.0 - 0.0
30/05:28am 13.0 7.4 10.2 83 1.5 W 30 48 16 26 1012.0 - 0.0
30/05:00am 13.0 6.4 10.0 82 1.6 W 35 50 19 27 1012.2 - 0.0
30/04:30am 13.3 6.3 10.1 81 1.7 W 37 56 20 30 1012.0 - 0.0
30/04:23am 13.2 6.2 10.0 81 1.7 W 37 56 20 30 1012.0 - 0.0
30/04:00am 13.2 6.5 9.8 80 1.8 W 35 50 19 27 1012.2 - 0.0
30/03:35am 13.2 7.2 10.0 81 1.7 W 32 52 17 28 1012.2 - 0.0
30/03:30am 13.2 7.6 10.0 81 1.7 W 30 44 16 24 1012.5 - 0.0
30/03:00am 13.2 7.2 10.0 81 1.7 W 32 46 17 25 1012.5 1012.5 0.0
30/02:33am 13.2 5.8 9.8 80 1.8 W 39 57 21 31 1012.6 - 0.0
30/02:30am 13.2 5.0 9.8 80 1.8 W 43 57 23 31 1012.6 - 0.0
30/02:01am 13.2 6.7 10.2 82 1.6 W 35 59 19 32 1012.8 - 0.0
30/02:00am 13.2 7.0 10.2 82 1.6 W 33 50 18 27 1013.0 - 0.0
30/01:30am 13.2 6.3 10.2 82 1.6 W 37 56 20 30 1013.4 - 0.0
30/01:14am 13.2 5.5 10.2 82 1.6 W 41 59 22 32 1013.3 - 0.0
30/01:00am 13.3 6.0 10.3 82 1.6 W 39 56 21 30 1013.5 - 0.0
30/12:35am 13.2 6.3 10.2 82 1.6 W 37 56 20 30 1013.8 - 0.0
30/12:30am 13.2 6.3 10.2 82 1.6 W 37 50 20 27 1013.7 - 0.0
30/12:00am 13.3 6.8 10.3 82 1.6 W 35 57 19 31 1013.9 1013.9 0.0
 
Date/Time
EDT
Temp
°C
App
Temp
°C
Dew
Point
Rel
Hum
%
Delta-T
°C
Wind Press
QNH
hPa
Press
MSL
hPa
Rain
since 9 am
mm
Dir
 
Spd
km/h
Gust
km/h
Spd
kts
Gust
kts
29/11:31pm 13.3 6.6 9.7 79 1.9 W 35 54 19 29 1013.9 - 0.0
29/11:30pm 13.3 6.6 9.7 79 1.9 W 35 52 19 28 1013.9 - 0.0
29/11:03pm 13.5 6.8 9.7 78 2.0 W 35 54 19 29 1014.1 - 0.0
29/11:00pm 13.5 6.4 9.7 78 2.0 W 37 54 20 29 1013.9 - 0.0
29/10:31pm 13.4 5.9 9.6 78 2.0 W 39 57 21 31 1014.2 - 0.0
29/10:30pm 13.5 6.1 9.7 78 2.0 W 39 52 21 28 1014.2 - 0.0
29/10:00pm 13.3 6.3 9.9 80 1.8 W 37 61 20 33 1014.2 - 0.0
29/09:42pm 13.4 7.2 10.0 80 1.8 W 33 52 18 28 1014.4 - 0.0
29/09:30pm 13.3 7.1 9.9 80 1.8 W 33 46 18 25 1014.4 - 0.0
29/09:00pm 13.3 6.9 9.5 78 1.9 W 33 50 18 27 1014.2 1014.2 0.0
29/08:33pm 13.4 7.1 9.6 78 2.0 W 33 52 18 28 1014.0 - 0.0
29/08:30pm 13.4 6.7 9.5 77 2.0 W 35 52 19 28 1013.9 - 0.0
29/08:03pm 13.5 5.6 9.2 75 2.2 W 41 59 22 32 1013.6 - 0.0
29/08:00pm 13.5 5.2 9.2 75 2.2 W 43 59 23 32 1013.6 - 0.0
29/07:30pm 13.5 6.4 9.6 77 2.0 W 37 56 20 30 1013.9 - 0.0
29/07:01pm 13.6 6.8 9.3 75 2.2 W 35 56 19 30 1013.7 - 0.0
29/07:00pm 13.6 6.8 9.3 75 2.2 W 35 50 19 27 1013.8 - 0.0
29/06:30pm 13.6 7.3 9.1 74 2.3 W 32 50 17 27 1013.8 - 0.0
29/06:23pm 13.9 7.4 9.1 73 2.4 W 33 52 18 28 1013.9 - 0.0
29/06:00pm 14.2 7.4 9.2 72 2.6 W 35 50 19 27 1013.7 1013.7 0.0
29/05:38pm 13.9 7.3 8.7 71 2.6 W 33 52 18 28 1013.8 - 0.0
29/05:30pm 14.4 6.8 9.2 71 2.7 W 39 52 21 28 1013.5 - 0.0
29/05:07pm 14.5 5.8 8.5 67 3.0 W 44 63 24 34 1013.2 - 0.0
29/05:00pm 14.5 5.9 8.7 68 2.9 W 44 61 24 33 1013.3 - 0.0
29/04:30pm 14.5 5.5 8.9 69 2.9 W 46 65 25 35 1013.4 - 0.0
29/04:06pm 14.6 4.8 8.5 67 3.1 W 50 69 27 37 1013.4 - 0.0
29/04:00pm 14.4 4.2 8.6 68 2.9 W 52 69 28 37 1013.4 - 0.0
29/03:35pm 14.2 4.4 8.8 70 2.7 W 50 69 27 37 1013.7 - 0.0
29/03:30pm 14.3 4.2 8.9 70 2.8 W 52 69 28 37 1013.6 - 0.0
29/03:00pm 14.4 4.2 8.6 68 2.9 W 52 80 28 43 1013.7 1013.7 0.0
29/02:30pm 14.4 3.3 8.1 66 3.2 W 56 76 30 41 1013.7 - 0.0

Other Formats:

Comma delimited format used in spreadsheet applications
http://www.bom.gov.au/fwo/IDV60801/IDV60801.94893.axf

JavaScript Object Notation format (JSON) in row-major order
http://www.bom.gov.au/fwo/IDV60801/IDV60801.94893.json